sensor_id;sensor_type;location;lat;lon;timestamp;P1;durP1;ratioP1;P2;durP2;ratioP2
37903;SDS011;23738;50.422;18.758;2022-09-17T00:01:00;5.28;;;4.45;;
37903;SDS011;23738;50.422;18.758;2022-09-17T00:03:28;4.62;;;4.05;;
37903;SDS011;23738;50.422;18.758;2022-09-17T00:05:58;5.10;;;4.58;;
37903;SDS011;23738;50.422;18.758;2022-09-17T00:10:56;7.15;;;6.15;;
37903;SDS011;23738;50.422;18.758;2022-09-17T00:13:21;7.22;;;6.17;;
37903;SDS011;23738;50.422;18.758;2022-09-17T00:15:47;6.42;;;4.75;;
37903;SDS011;23738;50.422;18.758;2022-09-17T00:18:15;4.97;;;4.33;;
37903;SDS011;23738;50.422;18.758;2022-09-17T00:20:42;5.37;;;4.83;;
37903;SDS011;23738;50.422;18.758;2022-09-17T00:23:11;9.95;;;5.55;;
37903;SDS011;23738;50.422;18.758;2022-09-17T00:25:39;6.83;;;5.53;;
37903;SDS011;23738;50.422;18.758;2022-09-17T00:28:08;5.78;;;5.15;;
37903;SDS011;23738;50.422;18.758;2022-09-17T00:30:35;5.53;;;5.03;;
37903;SDS011;23738;50.422;18.758;2022-09-17T00:33:08;6.10;;;5.50;;
37903;SDS011;23738;50.422;18.758;2022-09-17T00:35:37;6.03;;;5.20;;
37903;SDS011;23738;50.422;18.758;2022-09-17T00:38:03;6.25;;;4.53;;
37903;SDS011;23738;50.422;18.758;2022-09-17T00:40:29;14.10;;;6.30;;
37903;SDS011;23738;50.422;18.758;2022-09-17T00:42:55;7.90;;;6.42;;
37903;SDS011;23738;50.422;18.758;2022-09-17T00:45:20;8.28;;;7.08;;
37903;SDS011;23738;50.422;18.758;2022-09-17T00:47:58;7.17;;;6.33;;
37903;SDS011;23738;50.422;18.758;2022-09-17T00:50:37;7.25;;;6.55;;
37903;SDS011;23738;50.422;18.758;2022-09-17T00:53:17;9.50;;;7.58;;
37903;SDS011;23738;50.422;18.758;2022-09-17T00:55:47;10.98;;;5.17;;
37903;SDS011;23738;50.422;18.758;2022-09-17T00:58:14;7.20;;;5.00;;
37903;SDS011;23738;50.422;18.758;2022-09-17T01:00:43;7.70;;;4.97;;
37903;SDS011;23738;50.422;18.758;2022-09-17T01:03:10;6.70;;;5.72;;
37903;SDS011;23738;50.422;18.758;2022-09-17T01:05:42;7.53;;;6.50;;
37903;SDS011;23738;50.422;18.758;2022-09-17T01:08:23;7.53;;;6.83;;
37903;SDS011;23738;50.422;18.758;2022-09-17T01:20:30;7.62;;;5.25;;
37903;SDS011;23738;50.422;18.758;2022-09-17T01:28:55;8.00;;;5.33;;
37903;SDS011;23738;50.422;18.758;2022-09-17T01:31:47;6.70;;;5.20;;
37903;SDS011;23738;50.422;18.758;2022-09-17T01:37:13;10.05;;;5.72;;
37903;SDS011;23738;50.422;18.758;2022-09-17T01:48:47;5.53;;;4.92;;
37903;SDS011;23738;50.422;18.758;2022-09-17T01:51:18;5.90;;;3.85;;
37903;SDS011;23738;50.422;18.758;2022-09-17T01:54:05;6.33;;;4.78;;
37903;SDS011;23738;50.422;18.758;2022-09-17T01:57:05;11.78;;;5.58;;
37903;SDS011;23738;50.422;18.758;2022-09-17T01:59:24;6.53;;;5.43;;
37903;SDS011;23738;50.422;18.758;2022-09-17T02:01:57;6.60;;;5.87;;
37903;SDS011;23738;50.422;18.758;2022-09-17T02:04:32;8.95;;;6.25;;
37903;SDS011;23738;50.422;18.758;2022-09-17T02:07:02;6.83;;;5.35;;
37903;SDS011;23738;50.422;18.758;2022-09-17T02:09:35;6.65;;;5.22;;
37903;SDS011;23738;50.422;18.758;2022-09-17T02:12:13;5.70;;;5.00;;
37903;SDS011;23738;50.422;18.758;2022-09-17T02:14:43;9.35;;;6.37;;
37903;SDS011;23738;50.422;18.758;2022-09-17T02:17:20;7.62;;;6.40;;
37903;SDS011;23738;50.422;18.758;2022-09-17T02:19:49;9.18;;;6.10;;
37903;SDS011;23738;50.422;18.758;2022-09-17T02:22:28;7.45;;;6.75;;
37903;SDS011;23738;50.422;18.758;2022-09-17T02:25:17;5.80;;;5.03;;
37903;SDS011;23738;50.422;18.758;2022-09-17T02:30:49;9.45;;;5.90;;
37903;SDS011;23738;50.422;18.758;2022-09-17T02:33:15;7.63;;;6.83;;
37903;SDS011;23738;50.422;18.758;2022-09-17T02:35:43;8.08;;;6.22;;
37903;SDS011;23738;50.422;18.758;2022-09-17T02:38:11;7.65;;;6.40;;
37903;SDS011;23738;50.422;18.758;2022-09-17T02:40:44;8.67;;;6.97;;
37903;SDS011;23738;50.422;18.758;2022-09-17T02:46:24;9.87;;;5.40;;
37903;SDS011;23738;50.422;18.758;2022-09-17T02:49:34;7.13;;;5.27;;
37903;SDS011;23738;50.422;18.758;2022-09-17T02:55:00;6.67;;;5.73;;
37903;SDS011;23738;50.422;18.758;2022-09-17T02:57:33;11.15;;;6.40;;
37903;SDS011;23738;50.422;18.758;2022-09-17T03:02:47;7.10;;;4.80;;
37903;SDS011;23738;50.422;18.758;2022-09-17T03:05:29;9.40;;;4.87;;
37903;SDS011;23738;50.422;18.758;2022-09-17T03:07:56;6.03;;;5.40;;
37903;SDS011;23738;50.422;18.758;2022-09-17T03:10:24;10.00;;;6.77;;
37903;SDS011;23738;50.422;18.758;2022-09-17T03:12:52;7.87;;;6.33;;
37903;SDS011;23738;50.422;18.758;2022-09-17T03:15:18;6.50;;;5.87;;
37903;SDS011;23738;50.422;18.758;2022-09-17T03:17:44;6.33;;;5.72;;
37903;SDS011;23738;50.422;18.758;2022-09-17T03:20:09;5.25;;;4.72;;
37903;SDS011;23738;50.422;18.758;2022-09-17T03:22:35;6.45;;;5.20;;
37903;SDS011;23738;50.422;18.758;2022-09-17T03:25:01;5.37;;;4.53;;
37903;SDS011;23738;50.422;18.758;2022-09-17T03:27:27;9.13;;;5.40;;
37903;SDS011;23738;50.422;18.758;2022-09-17T03:29:52;7.20;;;5.60;;
37903;SDS011;23738;50.422;18.758;2022-09-17T03:32:18;6.33;;;5.67;;
37903;SDS011;23738;50.422;18.758;2022-09-17T03:34:44;7.37;;;6.03;;
37903;SDS011;23738;50.422;18.758;2022-09-17T03:37:11;5.37;;;4.87;;
37903;SDS011;23738;50.422;18.758;2022-09-17T03:39:37;5.20;;;4.03;;
37903;SDS011;23738;50.422;18.758;2022-09-17T03:42:03;4.23;;;3.33;;
37903;SDS011;23738;50.422;18.758;2022-09-17T03:44:30;4.90;;;4.50;;
37903;SDS011;23738;50.422;18.758;2022-09-17T03:46:56;6.63;;;6.00;;
37903;SDS011;23738;50.422;18.758;2022-09-17T03:49:22;5.97;;;4.83;;
37903;SDS011;23738;50.422;18.758;2022-09-17T03:51:50;5.90;;;5.33;;
37903;SDS011;23738;50.422;18.758;2022-09-17T03:54:16;7.03;;;4.53;;
37903;SDS011;23738;50.422;18.758;2022-09-17T03:56:42;4.60;;;3.90;;
37903;SDS011;23738;50.422;18.758;2022-09-17T03:59:07;4.25;;;3.83;;
37903;SDS011;23738;50.422;18.758;2022-09-17T04:01:33;4.73;;;4.10;;
37903;SDS011;23738;50.422;18.758;2022-09-17T04:04:00;5.62;;;5.12;;
37903;SDS011;23738;50.422;18.758;2022-09-17T04:06:27;4.80;;;4.40;;
37903;SDS011;23738;50.422;18.758;2022-09-17T04:08:53;5.43;;;5.03;;
37903;SDS011;23738;50.422;18.758;2022-09-17T04:11:21;7.57;;;4.87;;
37903;SDS011;23738;50.422;18.758;2022-09-17T04:13:47;5.03;;;3.83;;
37903;SDS011;23738;50.422;18.758;2022-09-17T04:16:13;4.70;;;3.67;;
37903;SDS011;23738;50.422;18.758;2022-09-17T04:18:39;3.67;;;3.37;;
37903;SDS011;23738;50.422;18.758;2022-09-17T04:21:05;4.47;;;4.07;;
37903;SDS011;23738;50.422;18.758;2022-09-17T04:23:30;5.73;;;4.63;;
37903;SDS011;23738;50.422;18.758;2022-09-17T04:25:56;5.87;;;4.73;;
37903;SDS011;23738;50.422;18.758;2022-09-17T04:28:22;6.00;;;5.50;;
37903;SDS011;23738;50.422;18.758;2022-09-17T04:30:48;4.73;;;4.07;;
37903;SDS011;23738;50.422;18.758;2022-09-17T04:33:14;5.93;;;3.87;;
37903;SDS011;23738;50.422;18.758;2022-09-17T04:35:40;4.17;;;3.77;;
37903;SDS011;23738;50.422;18.758;2022-09-17T04:38:06;4.67;;;4.03;;
37903;SDS011;23738;50.422;18.758;2022-09-17T04:40:31;6.97;;;5.63;;
37903;SDS011;23738;50.422;18.758;2022-09-17T04:42:58;8.30;;;5.57;;
37903;SDS011;23738;50.422;18.758;2022-09-17T04:45:26;6.60;;;5.90;;
37903;SDS011;23738;50.422;18.758;2022-09-17T04:47:52;4.77;;;4.27;;
37903;SDS011;23738;50.422;18.758;2022-09-17T04:50:17;4.53;;;4.13;;
37903;SDS011;23738;50.422;18.758;2022-09-17T04:52:44;4.30;;;3.83;;
37903;SDS011;23738;50.422;18.758;2022-09-17T04:55:11;4.40;;;4.00;;
37903;SDS011;23738;50.422;18.758;2022-09-17T04:57:38;7.58;;;5.17;;
37903;SDS011;23738;50.422;18.758;2022-09-17T05:00:04;6.00;;;5.40;;
37903;SDS011;23738;50.422;18.758;2022-09-17T05:02:34;5.27;;;4.77;;
37903;SDS011;23738;50.422;18.758;2022-09-17T05:04:59;5.53;;;4.80;;
37903;SDS011;23738;50.422;18.758;2022-09-17T05:07:26;6.20;;;4.37;;
37903;SDS011;23738;50.422;18.758;2022-09-17T05:09:52;3.90;;;3.55;;
37903;SDS011;23738;50.422;18.758;2022-09-17T05:12:18;4.47;;;3.60;;
37903;SDS011;23738;50.422;18.758;2022-09-17T05:14:44;4.53;;;4.13;;
37903;SDS011;23738;50.422;18.758;2022-09-17T05:17:10;5.80;;;5.30;;
37903;SDS011;23738;50.422;18.758;2022-09-17T05:19:36;7.00;;;6.40;;
37903;SDS011;23738;50.422;18.758;2022-09-17T05:22:02;6.67;;;5.97;;
37903;SDS011;23738;50.422;18.758;2022-09-17T05:24:28;7.07;;;5.43;;
37903;SDS011;23738;50.422;18.758;2022-09-17T05:26:53;5.53;;;4.45;;
37903;SDS011;23738;50.422;18.758;2022-09-17T05:29:19;6.10;;;5.53;;
37903;SDS011;23738;50.422;18.758;2022-09-17T05:31:45;4.80;;;4.30;;
37903;SDS011;23738;50.422;18.758;2022-09-17T05:34:11;5.97;;;4.97;;
37903;SDS011;23738;50.422;18.758;2022-09-17T05:36:37;6.17;;;5.58;;
37903;SDS011;23738;50.422;18.758;2022-09-17T05:39:02;6.53;;;5.92;;
37903;SDS011;23738;50.422;18.758;2022-09-17T05:41:28;8.20;;;5.90;;
37903;SDS011;23738;50.422;18.758;2022-09-17T05:43:54;4.97;;;4.45;;
37903;SDS011;23738;50.422;18.758;2022-09-17T05:46:20;5.35;;;4.62;;
37903;SDS011;23738;50.422;18.758;2022-09-17T05:48:46;6.55;;;5.95;;
37903;SDS011;23738;50.422;18.758;2022-09-17T05:51:11;7.15;;;6.00;;
37903;SDS011;23738;50.422;18.758;2022-09-17T05:53:37;7.47;;;6.75;;
37903;SDS011;23738;50.422;18.758;2022-09-17T05:56:03;7.17;;;6.47;;
37903;SDS011;23738;50.422;18.758;2022-09-17T05:58:29;6.67;;;5.25;;
37903;SDS011;23738;50.422;18.758;2022-09-17T06:00:59;6.15;;;5.50;;
37903;SDS011;23738;50.422;18.758;2022-09-17T06:03:25;9.45;;;5.72;;
37903;SDS011;23738;50.422;18.758;2022-09-17T06:05:52;6.10;;;5.50;;
37903;SDS011;23738;50.422;18.758;2022-09-17T06:08:22;8.70;;;6.75;;
37903;SDS011;23738;50.422;18.758;2022-09-17T06:10:50;7.60;;;5.55;;
37903;SDS011;23738;50.422;18.758;2022-09-17T06:13:16;6.65;;;5.25;;
37903;SDS011;23738;50.422;18.758;2022-09-17T06:15:48;5.20;;;4.65;;
37903;SDS011;23738;50.422;18.758;2022-09-17T06:18:18;4.70;;;4.25;;
37903;SDS011;23738;50.422;18.758;2022-09-17T06:20:52;5.12;;;4.20;;
37903;SDS011;23738;50.422;18.758;2022-09-17T06:23:24;11.33;;;6.37;;
37903;SDS011;23738;50.422;18.758;2022-09-17T06:25:56;12.18;;;6.78;;
37903;SDS011;23738;50.422;18.758;2022-09-17T06:28:28;9.10;;;7.33;;
37903;SDS011;23738;50.422;18.758;2022-09-17T06:30:52;9.68;;;8.15;;
37903;SDS011;23738;50.422;18.758;2022-09-17T06:33:23;11.40;;;6.97;;
37903;SDS011;23738;50.422;18.758;2022-09-17T06:35:56;8.05;;;5.97;;
37903;SDS011;23738;50.422;18.758;2022-09-17T06:38:28;13.85;;;7.62;;
37903;SDS011;23738;50.422;18.758;2022-09-17T06:40:56;11.70;;;7.28;;
37903;SDS011;23738;50.422;18.758;2022-09-17T06:43:23;16.70;;;8.43;;
37903;SDS011;23738;50.422;18.758;2022-09-17T06:45:54;9.63;;;7.58;;
37903;SDS011;23738;50.422;18.758;2022-09-17T06:48:23;13.18;;;8.68;;
37903;SDS011;23738;50.422;18.758;2022-09-17T06:50:51;12.13;;;6.90;;
37903;SDS011;23738;50.422;18.758;2022-09-17T06:53:19;7.62;;;5.75;;
37903;SDS011;23738;50.422;18.758;2022-09-17T06:55:46;7.67;;;6.00;;
37903;SDS011;23738;50.422;18.758;2022-09-17T06:58:13;16.60;;;6.42;;
37903;SDS011;23738;50.422;18.758;2022-09-17T07:00:38;8.90;;;6.00;;
37903;SDS011;23738;50.422;18.758;2022-09-17T07:03:05;7.47;;;6.30;;
37903;SDS011;23738;50.422;18.758;2022-09-17T07:05:31;10.63;;;6.47;;
37903;SDS011;23738;50.422;18.758;2022-09-17T07:07:59;6.58;;;4.85;;
37903;SDS011;23738;50.422;18.758;2022-09-17T07:10:28;6.60;;;4.05;;
37903;SDS011;23738;50.422;18.758;2022-09-17T07:12:55;8.00;;;4.92;;
37903;SDS011;23738;50.422;18.758;2022-09-17T07:15:21;6.50;;;5.50;;
37903;SDS011;23738;50.422;18.758;2022-09-17T07:17:47;6.55;;;4.30;;
37903;SDS011;23738;50.422;18.758;2022-09-17T07:20:13;5.10;;;4.58;;
37903;SDS011;23738;50.422;18.758;2022-09-17T07:22:39;8.85;;;4.40;;
37903;SDS011;23738;50.422;18.758;2022-09-17T07:25:05;3.65;;;3.20;;
37903;SDS011;23738;50.422;18.758;2022-09-17T07:27:32;6.62;;;3.30;;
37903;SDS011;23738;50.422;18.758;2022-09-17T07:29:58;5.00;;;2.95;;
37903;SDS011;23738;50.422;18.758;2022-09-17T07:32:24;3.90;;;3.45;;
37903;SDS011;23738;50.422;18.758;2022-09-17T07:34:51;5.17;;;3.33;;
37903;SDS011;23738;50.422;18.758;2022-09-17T07:37:17;4.17;;;3.50;;
37903;SDS011;23738;50.422;18.758;2022-09-17T07:39:44;6.03;;;2.80;;
37903;SDS011;23738;50.422;18.758;2022-09-17T07:42:10;3.55;;;2.70;;
37903;SDS011;23738;50.422;18.758;2022-09-17T07:44:36;3.52;;;3.02;;
37903;SDS011;23738;50.422;18.758;2022-09-17T07:47:02;4.15;;;3.08;;
37903;SDS011;23738;50.422;18.758;2022-09-17T07:49:29;4.03;;;3.22;;
37903;SDS011;23738;50.422;18.758;2022-09-17T07:51:55;3.30;;;3.00;;
37903;SDS011;23738;50.422;18.758;2022-09-17T07:54:22;4.63;;;2.70;;
37903;SDS011;23738;50.422;18.758;2022-09-17T07:56:48;3.83;;;3.20;;
37903;SDS011;23738;50.422;18.758;2022-09-17T07:59:13;4.08;;;3.67;;
37903;SDS011;23738;50.422;18.758;2022-09-17T08:01:39;3.70;;;2.90;;
37903;SDS011;23738;50.422;18.758;2022-09-17T08:04:05;4.37;;;3.20;;
37903;SDS011;23738;50.422;18.758;2022-09-17T08:06:34;5.28;;;3.40;;
37903;SDS011;23738;50.422;18.758;2022-09-17T08:09:04;3.52;;;2.47;;
37903;SDS011;23738;50.422;18.758;2022-09-17T08:11:31;2.58;;;1.82;;
37903;SDS011;23738;50.422;18.758;2022-09-17T08:13:57;4.35;;;2.55;;
37903;SDS011;23738;50.422;18.758;2022-09-17T08:16:24;4.45;;;2.72;;
37903;SDS011;23738;50.422;18.758;2022-09-17T08:18:53;3.37;;;3.08;;
37903;SDS011;23738;50.422;18.758;2022-09-17T08:21:21;4.95;;;3.60;;
37903;SDS011;23738;50.422;18.758;2022-09-17T08:23:48;3.30;;;2.92;;
37903;SDS011;23738;50.422;18.758;2022-09-17T08:26:15;3.25;;;2.30;;
37903;SDS011;23738;50.422;18.758;2022-09-17T08:28:48;6.72;;;4.20;;
37903;SDS011;23738;50.422;18.758;2022-09-17T08:31:18;3.70;;;2.90;;
37903;SDS011;23738;50.422;18.758;2022-09-17T08:33:45;4.58;;;4.17;;
37903;SDS011;23738;50.422;18.758;2022-09-17T08:36:12;5.03;;;3.40;;
37903;SDS011;23738;50.422;18.758;2022-09-17T08:38:41;3.12;;;2.52;;
37903;SDS011;23738;50.422;18.758;2022-09-17T08:47:07;3.92;;;2.27;;
37903;SDS011;23738;50.422;18.758;2022-09-17T09:04:24;4.55;;;2.80;;
37903;SDS011;23738;50.422;18.758;2022-09-17T09:07:24;5.97;;;3.60;;
37903;SDS011;23738;50.422;18.758;2022-09-17T09:12:41;4.17;;;2.77;;
37903;SDS011;23738;50.422;18.758;2022-09-17T09:20:49;3.65;;;2.95;;
37903;SDS011;23738;50.422;18.758;2022-09-17T09:23:49;3.52;;;2.87;;
37903;SDS011;23738;50.422;18.758;2022-09-17T09:26:21;3.55;;;2.50;;
37903;SDS011;23738;50.422;18.758;2022-09-17T09:31:56;3.50;;;2.80;;
37903;SDS011;23738;50.422;18.758;2022-09-17T09:34:41;3.60;;;2.85;;
37903;SDS011;23738;50.422;18.758;2022-09-17T09:37:13;4.17;;;3.40;;
37903;SDS011;23738;50.422;18.758;2022-09-17T09:39:40;5.47;;;2.67;;
37903;SDS011;23738;50.422;18.758;2022-09-17T09:45:41;4.92;;;3.25;;
37903;SDS011;23738;50.422;18.758;2022-09-17T09:47:42;3.90;;;2.83;;
37903;SDS011;23738;50.422;18.758;2022-09-17T09:55:50;5.25;;;3.65;;
37903;SDS011;23738;50.422;18.758;2022-09-17T09:58:36;6.53;;;5.00;;
37903;SDS011;23738;50.422;18.758;2022-09-17T10:01:14;3.90;;;3.50;;
37903;SDS011;23738;50.422;18.758;2022-09-17T10:06:09;6.75;;;4.35;;
37903;SDS011;23738;50.422;18.758;2022-09-17T10:08:41;4.12;;;3.72;;
37903;SDS011;23738;50.422;18.758;2022-09-17T10:13:39;2.77;;;2.25;;
37903;SDS011;23738;50.422;18.758;2022-09-17T10:16:14;3.80;;;1.98;;
37903;SDS011;23738;50.422;18.758;2022-09-17T10:18:58;2.58;;;1.60;;
37903;SDS011;23738;50.422;18.758;2022-09-17T10:21:34;3.90;;;1.40;;
37903;SDS011;23738;50.422;18.758;2022-09-17T10:24:22;2.47;;;1.77;;
37903;SDS011;23738;50.422;18.758;2022-09-17T10:26:51;4.67;;;1.87;;
37903;SDS011;23738;50.422;18.758;2022-09-17T10:29:27;3.02;;;2.00;;
37903;SDS011;23738;50.422;18.758;2022-09-17T10:31:53;4.62;;;2.25;;
37903;SDS011;23738;50.422;18.758;2022-09-17T10:34:25;2.10;;;1.80;;
37903;SDS011;23738;50.422;18.758;2022-09-17T10:36:53;3.90;;;2.10;;
37903;SDS011;23738;50.422;18.758;2022-09-17T10:44:56;7.22;;;6.15;;
37903;SDS011;23738;50.422;18.758;2022-09-17T10:47:26;4.72;;;3.67;;
37903;SDS011;23738;50.422;18.758;2022-09-17T10:49:58;6.85;;;4.37;;
37903;SDS011;23738;50.422;18.758;2022-09-17T10:52:32;5.53;;;3.45;;
37903;SDS011;23738;50.422;18.758;2022-09-17T11:06:32;3.67;;;1.85;;
37903;SDS011;23738;50.422;18.758;2022-09-17T11:15:27;3.10;;;1.70;;
37903;SDS011;23738;50.422;18.758;2022-09-17T11:18:20;2.60;;;1.77;;
37903;SDS011;23738;50.422;18.758;2022-09-17T11:21:06;2.70;;;2.30;;
37903;SDS011;23738;50.422;18.758;2022-09-17T11:35:24;4.92;;;2.10;;
37903;SDS011;23738;50.422;18.758;2022-09-17T11:37:57;5.15;;;3.58;;
37903;SDS011;23738;50.422;18.758;2022-09-17T11:40:51;5.37;;;4.30;;
37903;SDS011;23738;50.422;18.758;2022-09-17T11:46:12;3.80;;;2.10;;
37903;SDS011;23738;50.422;18.758;2022-09-17T11:48:50;3.02;;;2.12;;
37903;SDS011;23738;50.422;18.758;2022-09-17T11:51:36;2.75;;;2.15;;
37903;SDS011;23738;50.422;18.758;2022-09-17T11:54:06;4.10;;;1.62;;
37903;SDS011;23738;50.422;18.758;2022-09-17T11:56:43;1.90;;;1.30;;
37903;SDS011;23738;50.422;18.758;2022-09-17T11:59:28;3.05;;;1.82;;
37903;SDS011;23738;50.422;18.758;2022-09-17T12:02:16;2.77;;;1.80;;
37903;SDS011;23738;50.422;18.758;2022-09-17T12:04:43;2.95;;;1.80;;
37903;SDS011;23738;50.422;18.758;2022-09-17T12:07:30;2.60;;;2.12;;
37903;SDS011;23738;50.422;18.758;2022-09-17T12:19:08;2.47;;;1.82;;
37903;SDS011;23738;50.422;18.758;2022-09-17T12:22:08;4.92;;;2.12;;
37903;SDS011;23738;50.422;18.758;2022-09-17T12:24:42;8.55;;;3.95;;
37903;SDS011;23738;50.422;18.758;2022-09-17T12:30:18;4.40;;;4.00;;
37903;SDS011;23738;50.422;18.758;2022-09-17T12:36:35;13.15;;;8.30;;
37903;SDS011;23738;50.422;18.758;2022-09-17T12:41:46;31.48;;;17.15;;
37903;SDS011;23738;50.422;18.758;2022-09-17T12:44:45;9.73;;;6.60;;
37903;SDS011;23738;50.422;18.758;2022-09-17T12:50:47;4.62;;;2.72;;
37903;SDS011;23738;50.422;18.758;2022-09-17T12:53:42;2.92;;;2.62;;
37903;SDS011;23738;50.422;18.758;2022-09-17T12:59:20;5.17;;;3.30;;
37903;SDS011;23738;50.422;18.758;2022-09-17T13:08:03;4.58;;;3.20;;
37903;SDS011;23738;50.422;18.758;2022-09-17T13:19:40;16.97;;;10.50;;
37903;SDS011;23738;50.422;18.758;2022-09-17T13:22:12;11.40;;;5.10;;
37903;SDS011;23738;50.422;18.758;2022-09-17T13:24:41;6.90;;;5.00;;
37903;SDS011;23738;50.422;18.758;2022-09-17T13:27:18;4.15;;;3.35;;
37903;SDS011;23738;50.422;18.758;2022-09-17T13:37:37;3.25;;;2.47;;
37903;SDS011;23738;50.422;18.758;2022-09-17T13:40:53;4.47;;;3.77;;
37903;SDS011;23738;50.422;18.758;2022-09-17T13:48:29;29.87;;;16.48;;
37903;SDS011;23738;50.422;18.758;2022-09-17T13:50:57;7.50;;;5.40;;
37903;SDS011;23738;50.422;18.758;2022-09-17T13:53:58;5.47;;;3.67;;
37903;SDS011;23738;50.422;18.758;2022-09-17T13:56:32;6.03;;;5.15;;
37903;SDS011;23738;50.422;18.758;2022-09-17T13:59:23;4.80;;;2.87;;
37903;SDS011;23738;50.422;18.758;2022-09-17T14:01:56;6.80;;;3.15;;
37903;SDS011;23738;50.422;18.758;2022-09-17T14:04:47;4.67;;;2.17;;
37903;SDS011;23738;50.422;18.758;2022-09-17T14:08:06;2.87;;;2.45;;
37903;SDS011;23738;50.422;18.758;2022-09-17T14:09:59;2.35;;;1.77;;
37903;SDS011;23738;50.422;18.758;2022-09-17T14:18:41;6.73;;;1.70;;
37903;SDS011;23738;50.422;18.758;2022-09-17T14:23:45;3.85;;;2.00;;
37903;SDS011;23738;50.422;18.758;2022-09-17T14:26:17;3.00;;;2.00;;
37903;SDS011;23738;50.422;18.758;2022-09-17T14:29:26;2.67;;;1.72;;
37903;SDS011;23738;50.422;18.758;2022-09-17T14:32:14;2.70;;;1.82;;
37903;SDS011;23738;50.422;18.758;2022-09-17T14:34:45;2.52;;;2.15;;
37903;SDS011;23738;50.422;18.758;2022-09-17T14:37:13;2.52;;;2.10;;
37903;SDS011;23738;50.422;18.758;2022-09-17T14:39:42;7.87;;;6.87;;
37903;SDS011;23738;50.422;18.758;2022-09-17T14:42:13;7.37;;;6.15;;
37903;SDS011;23738;50.422;18.758;2022-09-17T14:44:59;3.60;;;2.98;;
37903;SDS011;23738;50.422;18.758;2022-09-17T14:47:25;4.60;;;3.00;;
37903;SDS011;23738;50.422;18.758;2022-09-17T14:49:51;5.47;;;4.47;;
37903;SDS011;23738;50.422;18.758;2022-09-17T14:52:22;5.25;;;4.72;;
37903;SDS011;23738;50.422;18.758;2022-09-17T14:57:57;5.03;;;4.50;;
37903;SDS011;23738;50.422;18.758;2022-09-17T15:00:32;6.70;;;4.30;;
37903;SDS011;23738;50.422;18.758;2022-09-17T15:03:02;4.25;;;3.80;;
37903;SDS011;23738;50.422;18.758;2022-09-17T15:05:32;5.10;;;4.00;;
37903;SDS011;23738;50.422;18.758;2022-09-17T15:08:06;13.90;;;10.23;;
37903;SDS011;23738;50.422;18.758;2022-09-17T15:11:01;14.73;;;12.23;;
37903;SDS011;23738;50.422;18.758;2022-09-17T15:14:04;25.15;;;16.07;;
37903;SDS011;23738;50.422;18.758;2022-09-17T15:16:21;18.73;;;14.35;;
37903;SDS011;23738;50.422;18.758;2022-09-17T15:18:53;13.35;;;11.95;;
37903;SDS011;23738;50.422;18.758;2022-09-17T15:24:18;16.23;;;14.07;;
37903;SDS011;23738;50.422;18.758;2022-09-17T15:26:52;18.95;;;13.55;;
37903;SDS011;23738;50.422;18.758;2022-09-17T15:29:22;19.60;;;12.40;;
37903;SDS011;23738;50.422;18.758;2022-09-17T15:31:52;19.00;;;14.03;;
37903;SDS011;23738;50.422;18.758;2022-09-17T15:34:18;11.78;;;10.50;;
37903;SDS011;23738;50.422;18.758;2022-09-17T15:37:03;10.32;;;9.23;;
37903;SDS011;23738;50.422;18.758;2022-09-17T15:39:41;9.70;;;8.60;;
37903;SDS011;23738;50.422;18.758;2022-09-17T15:42:28;10.72;;;9.63;;
37903;SDS011;23738;50.422;18.758;2022-09-17T15:50:16;8.65;;;7.30;;
37903;SDS011;23738;50.422;18.758;2022-09-17T15:52:57;8.35;;;7.55;;
37903;SDS011;23738;50.422;18.758;2022-09-17T15:55:40;8.53;;;7.60;;
37903;SDS011;23738;50.422;18.758;2022-09-17T15:58:20;9.15;;;8.25;;
37903;SDS011;23738;50.422;18.758;2022-09-17T16:01:27;8.65;;;7.75;;
37903;SDS011;23738;50.422;18.758;2022-09-17T16:08:57;25.87;;;19.03;;
37903;SDS011;23738;50.422;18.758;2022-09-17T16:11:26;22.37;;;17.57;;
37903;SDS011;23738;50.422;18.758;2022-09-17T16:13:55;28.25;;;20.82;;
37903;SDS011;23738;50.422;18.758;2022-09-17T16:23:50;24.07;;;18.75;;
37903;SDS011;23738;50.422;18.758;2022-09-17T16:26:20;17.42;;;15.45;;
37903;SDS011;23738;50.422;18.758;2022-09-17T16:28:55;12.43;;;11.15;;
37903;SDS011;23738;50.422;18.758;2022-09-17T16:31:32;12.65;;;10.58;;
37903;SDS011;23738;50.422;18.758;2022-09-17T16:33:58;15.85;;;14.05;;
37903;SDS011;23738;50.422;18.758;2022-09-17T16:36:24;15.80;;;14.20;;
37903;SDS011;23738;50.422;18.758;2022-09-17T16:38:51;14.58;;;13.08;;
37903;SDS011;23738;50.422;18.758;2022-09-17T16:41:17;14.28;;;12.90;;
37903;SDS011;23738;50.422;18.758;2022-09-17T16:43:42;14.20;;;12.63;;
37903;SDS011;23738;50.422;18.758;2022-09-17T16:46:09;9.38;;;7.97;;
37903;SDS011;23738;50.422;18.758;2022-09-17T16:48:35;8.18;;;7.30;;
37903;SDS011;23738;50.422;18.758;2022-09-17T16:51:05;9.03;;;7.47;;
37903;SDS011;23738;50.422;18.758;2022-09-17T16:53:34;9.45;;;8.55;;
37903;SDS011;23738;50.422;18.758;2022-09-17T16:56:00;11.38;;;10.38;;
37903;SDS011;23738;50.422;18.758;2022-09-17T16:58:32;8.20;;;6.60;;
37903;SDS011;23738;50.422;18.758;2022-09-17T17:01:04;5.75;;;5.25;;
37903;SDS011;23738;50.422;18.758;2022-09-17T17:03:34;5.85;;;5.33;;
37903;SDS011;23738;50.422;18.758;2022-09-17T17:06:00;3.00;;;2.60;;
37903;SDS011;23738;50.422;18.758;2022-09-17T17:08:27;3.98;;;2.95;;
37903;SDS011;23738;50.422;18.758;2022-09-17T17:10:53;3.50;;;2.83;;
37903;SDS011;23738;50.422;18.758;2022-09-17T17:13:19;2.65;;;2.10;;
37903;SDS011;23738;50.422;18.758;2022-09-17T17:15:45;3.37;;;2.80;;
37903;SDS011;23738;50.422;18.758;2022-09-17T17:18:11;3.33;;;3.02;;
37903;SDS011;23738;50.422;18.758;2022-09-17T17:20:36;3.75;;;3.35;;
37903;SDS011;23738;50.422;18.758;2022-09-17T17:23:02;3.25;;;2.95;;
37903;SDS011;23738;50.422;18.758;2022-09-17T17:25:28;3.83;;;2.70;;
37903;SDS011;23738;50.422;18.758;2022-09-17T17:27:56;2.00;;;1.80;;
37903;SDS011;23738;50.422;18.758;2022-09-17T17:30:22;2.25;;;2.02;;
37903;SDS011;23738;50.422;18.758;2022-09-17T17:32:49;3.27;;;2.95;;
37903;SDS011;23738;50.422;18.758;2022-09-17T17:35:17;5.42;;;2.55;;
37903;SDS011;23738;50.422;18.758;2022-09-17T17:37:44;2.50;;;2.30;;
37903;SDS011;23738;50.422;18.758;2022-09-17T17:40:11;3.27;;;2.47;;
37903;SDS011;23738;50.422;18.758;2022-09-17T17:42:37;3.15;;;2.67;;
37903;SDS011;23738;50.422;18.758;2022-09-17T17:45:06;3.30;;;2.45;;
37903;SDS011;23738;50.422;18.758;2022-09-17T17:47:32;4.15;;;2.27;;
37903;SDS011;23738;50.422;18.758;2022-09-17T17:49:58;3.42;;;2.45;;
37903;SDS011;23738;50.422;18.758;2022-09-17T17:52:24;2.77;;;2.25;;
37903;SDS011;23738;50.422;18.758;2022-09-17T17:54:50;3.12;;;2.30;;
37903;SDS011;23738;50.422;18.758;2022-09-17T17:57:16;2.55;;;2.30;;
37903;SDS011;23738;50.422;18.758;2022-09-17T17:59:42;2.60;;;2.00;;
37903;SDS011;23738;50.422;18.758;2022-09-17T18:02:08;2.22;;;1.95;;
37903;SDS011;23738;50.422;18.758;2022-09-17T18:04:35;2.12;;;1.80;;
37903;SDS011;23738;50.422;18.758;2022-09-17T18:07:01;2.27;;;2.08;;
37903;SDS011;23738;50.422;18.758;2022-09-17T18:09:27;3.22;;;2.33;;
37903;SDS011;23738;50.422;18.758;2022-09-17T18:11:54;3.63;;;2.60;;
37903;SDS011;23738;50.422;18.758;2022-09-17T18:14:20;4.10;;;3.13;;
37903;SDS011;23738;50.422;18.758;2022-09-17T18:16:45;3.72;;;3.33;;
37903;SDS011;23738;50.422;18.758;2022-09-17T18:19:11;5.50;;;3.27;;
37903;SDS011;23738;50.422;18.758;2022-09-17T18:21:37;3.37;;;3.05;;
37903;SDS011;23738;50.422;18.758;2022-09-17T18:24:03;4.87;;;2.67;;